Time;durP1;ratioP1;P1;durP2;ratioP2;P2;SDS_P1;SDS_P2;PMS_P1;PMS_P2;Temp;Humidity;BMP_temperature;BMP_pressure;BME280_temperature;BME280_humidity;BME280_pressure;Samples;Min_cycle;Max_cycle;Signal;HPM_P1;HPM_P2
2022/11/20 00:01:08;;;;;;;17.73;3.47;;;20.80;27.60;;;;;;5041224;28;20069;-66
2022/11/20 00:03:34;;;;;;;15.30;3.17;;;20.70;27.40;;;;;;5037925;28;20153;-64
2022/11/20 00:06:06;;;;;;;11.60;2.92;;;20.70;27.50;;;;;;5044167;28;20088;-62
2022/11/20 00:08:33;;;;;;;51.00;6.82;;;20.70;27.70;;;;;;5040853;28;20161;-64
2022/11/20 00:11:07;;;;;;;57.03;5.70;;;20.70;28.10;;;;;;5033733;28;20116;-66
2022/11/20 00:13:34;;;;;;;12.95;3.00;;;20.60;28.10;;;;;;5039167;28;20070;-67
2022/11/20 00:16:02;;;;;;;19.85;3.38;;;20.50;28.20;;;;;;5036572;28;20089;-68
2022/11/20 00:18:29;;;;;;;19.15;4.53;;;20.50;28.40;;;;;;5036692;28;20074;-64
2022/11/20 00:21:02;;;;;;;16.33;3.85;;;20.30;28.60;;;;;;5034296;28;20077;-64
2022/11/20 00:23:28;;;;;;;20.70;6.45;;;20.20;28.80;;;;;;5037907;28;20097;-64
2022/11/20 00:25:54;;;;;;;20.08;4.57;;;20.10;28.70;;;;;;5035236;28;20074;-65
2022/11/20 00:28:21;;;;;;;33.13;8.23;;;20.00;28.90;;;;;;5035232;28;20085;-65
2022/11/20 00:30:47;;;;;;;19.15;5.60;;;20.00;29.10;;;;;;5034636;28;20085;-65
2022/11/20 00:33:14;;;;;;;16.48;3.63;;;19.80;29.40;;;;;;5039114;28;20077;-65
2022/11/20 00:35:40;;;;;;;21.90;3.47;;;19.70;29.40;;;;;;5036476;28;20078;-64
2022/11/20 00:38:06;;;;;;;18.65;3.97;;;19.70;29.40;;;;;;5042116;28;20244;-65
2022/11/20 00:40:33;;;;;;;19.25;5.43;;;19.50;29.70;;;;;;5031467;28;20558;-66
2022/11/20 00:42:59;;;;;;;31.30;9.43;;;19.40;29.60;;;;;;5032557;28;20129;-68
2022/11/20 00:45:25;;;;;;;26.65;8.95;;;19.40;30.00;;;;;;5030455;28;20069;-65
2022/11/20 00:47:52;;;;;;;35.50;9.88;;;19.30;30.60;;;;;;5035942;28;20093;-67
2022/11/20 00:50:18;;;;;;;28.55;8.05;;;19.20;31.30;;;;;;5036996;28;20074;-67
2022/11/20 00:52:44;;;;;;;25.67;5.65;;;19.00;31.00;;;;;;5032947;28;20078;-67
2022/11/20 00:55:11;;;;;;;20.95;5.75;;;18.90;31.60;;;;;;5040720;28;20082;-67
2022/11/20 00:57:37;;;;;;;21.98;4.75;;;18.80;32.00;;;;;;5038395;28;20097;-66
2022/11/20 01:00:04;;;;;;;17.40;5.18;;;18.80;32.70;;;;;;5037502;28;20491;-62
2022/11/20 01:02:30;;;;;;;26.13;6.10;;;18.60;33.20;;;;;;5037263;28;20074;-66
2022/11/20 01:04:57;;;;;;;33.42;7.40;;;18.50;33.50;;;;;;5036081;28;20411;-63
2022/11/20 01:07:23;;;;;;;37.70;9.48;;;18.40;34.20;;;;;;5034171;28;20481;-65
2022/11/20 01:09:49;;;;;;;30.35;10.00;;;18.40;34.20;;;;;;5033693;28;20124;-64
2022/11/20 01:12:16;;;;;;;34.35;10.35;;;18.30;34.80;;;;;;5034303;28;20070;-65
2022/11/20 01:14:42;;;;;;;32.75;11.05;;;18.20;34.60;;;;;;5038149;28;20147;-66
2022/11/20 01:17:09;;;;;;;29.67;8.60;;;18.10;35.10;;;;;;5032885;28;20097;-65
2022/11/20 01:19:35;;;;;;;24.60;6.90;;;18.00;35.50;;;;;;5034819;28;20150;-62
2022/11/20 01:22:01;;;;;;;;;;;17.90;35.70;;;;;;5033243;28;20081;-63
2022/11/20 01:24:27;;;;;;;35.42;7.55;;;17.80;35.50;;;;;;5034882;28;19985;-63
2022/11/20 01:26:54;;;;;;;29.25;5.95;;;17.70;35.60;;;;;;5033803;28;20101;-65
2022/11/20 01:29:23;;;;;;;20.42;6.07;;;17.70;36.10;;;;;;5038078;28;20454;-63
2022/11/20 01:31:49;;;;;;;17.58;5.72;;;17.70;36.30;;;;;;5031598;28;20088;-64
2022/11/20 01:34:19;;;;;;;28.98;7.20;;;17.60;36.60;;;;;;5034316;28;20073;-64
2022/11/20 01:36:45;;;;;;;32.88;9.00;;;17.60;36.60;;;;;;5032418;28;20093;-60
2022/11/20 01:39:24;;;;;;;34.00;11.82;;;17.40;36.70;;;;;;5032538;28;21556;-63
2022/11/20 01:44:54;;;;;;;72.90;14.02;;;17.40;37.20;;;;;;5032403;28;20092;-67
2022/11/20 01:47:45;;;;;;;52.67;11.30;;;17.30;37.70;;;;;;5032869;28;20164;-65
2022/11/20 01:50:22;;;;;;;57.17;10.27;;;17.20;38.20;;;;;;5037056;28;20065;-64
2022/11/20 01:53:21;;;;;;;55.60;8.60;;;17.10;38.20;;;;;;5038079;28;20093;-66
2022/11/20 01:55:53;;;;;;;37.17;7.32;;;17.00;39.20;;;;;;4990856;28;20086;-65
2022/11/20 01:58:27;;;;;;;40.75;7.22;;;16.90;38.40;;;;;;5000078;28;20165;-65
2022/11/20 02:00:54;;;;;;;92.78;9.80;;;16.90;39.50;;;;;;5001977;28;20121;-65
2022/11/20 02:03:21;;;;;;;49.50;9.10;;;16.90;39.50;;;;;;4999243;28;20089;-65
2022/11/20 02:06:06;;;;;;;36.28;8.00;;;16.70;39.30;;;;;;4991307;28;20137;-63
2022/11/20 02:08:34;;;;;;;43.45;9.40;;;16.70;39.10;;;;;;4997653;28;20161;-65
2022/11/20 02:11:00;;;;;;;27.92;8.65;;;16.50;39.50;;;;;;5001069;28;20106;-65
2022/11/20 02:13:44;;;;;;;;;;;16.50;39.70;;;;;;4995670;28;20074;-65
2022/11/20 02:16:33;;;;;;;40.10;9.73;;;16.30;39.70;;;;;;4998498;28;20093;-64
2022/11/20 02:19:02;;;;;;;25.52;9.07;;;16.20;39.50;;;;;;4995187;28;20118;-64
2022/11/20 02:21:51;;;;;;;34.33;9.43;;;16.10;39.70;;;;;;4998342;28;20178;-64
2022/11/20 02:24:19;;;;;;;30.38;7.95;;;16.00;39.40;;;;;;4997063;28;20111;-65
2022/11/20 02:27:14;;;;;;;29.45;8.32;;;16.00;39.20;;;;;;5001856;28;20156;-64
2022/11/20 02:29:44;;;;;;;29.48;8.45;;;16.00;39.10;;;;;;4997327;28;20110;-66
2022/11/20 02:32:27;;;;;;;29.08;8.65;;;16.00;39.20;;;;;;5024258;28;20085;-64
2022/11/20 02:34:54;;;;;;;25.38;8.63;;;16.00;39.60;;;;;;5034006;28;20535;-63
2022/11/20 02:37:22;;;;;;;29.65;9.82;;;15.90;39.70;;;;;;5039523;28;20104;-62
2022/11/20 02:39:51;;;;;;;38.47;10.57;;;15.80;40.20;;;;;;5040788;28;20090;-64
2022/11/20 02:42:18;;;;;;;34.58;8.57;;;15.80;41.20;;;;;;5043749;28;20153;-64
2022/11/20 02:44:45;;;;;;;33.33;9.55;;;15.70;41.30;;;;;;5039586;28;20073;-63
2022/11/20 02:47:11;;;;;;;;;;;15.60;41.20;;;;;;5036549;28;20109;-64
2022/11/20 02:49:37;;;;;;;48.72;9.63;;;15.50;41.30;;;;;;5038300;28;19965;-66
2022/11/20 02:52:03;;;;;;;;;;;15.50;41.50;;;;;;5040236;28;20157;-64
2022/11/20 02:54:29;;;;;;;33.60;8.82;;;15.50;41.80;;;;;;5038065;28;19971;-62
2022/11/20 02:56:55;;;;;;;;;;;15.40;41.30;;;;;;5038326;28;20078;-62
2022/11/20 02:59:22;;;;;;;37.47;8.73;;;15.40;41.50;;;;;;5036919;28;19966;-65
2022/11/20 03:01:48;;;;;;;;;;;15.30;40.60;;;;;;5036969;28;20085;-63
2022/11/20 03:04:14;;;;;;;47.53;9.88;;;15.30;40.30;;;;;;5034425;28;20045;-65
2022/11/20 03:06:41;;;;;;;39.97;8.23;;;15.30;41.00;;;;;;5039930;28;20074;-64
2022/11/20 03:09:07;;;;;;;;;;;15.30;40.80;;;;;;5034785;28;20080;-66
2022/11/20 03:11:33;;;;;;;43.30;13.88;;;15.30;41.60;;;;;;5038201;28;19957;-64
2022/11/20 03:14:03;;;;;;;43.17;13.05;;;15.20;40.50;;;;;;5036959;28;20093;-65
2022/11/20 03:16:32;;;;;;;34.25;9.70;;;15.30;39.90;;;;;;5029945;28;20097;-64
2022/11/20 03:18:59;;;;;;;24.38;8.82;;;15.30;38.10;;;;;;5035003;28;20066;-66
2022/11/20 03:21:26;;;;;;;47.28;10.30;;;15.40;38.50;;;;;;5037071;28;20074;-64
2022/11/20 03:23:53;;;;;;;;;;;15.30;38.30;;;;;;5034700;28;20609;-65
2022/11/20 03:26:23;;;;;;;31.92;9.70;;;15.30;38.20;;;;;;5036314;28;20472;-64
2022/11/20 03:28:52;;;;;;;52.28;11.05;;;15.30;38.50;;;;;;5034238;28;20074;-64
2022/11/20 03:31:23;;;;;;;39.80;11.40;;;15.30;38.10;;;;;;5036036;28;20097;-67
2022/11/20 03:33:50;;;;;;;38.95;11.73;;;15.20;39.20;;;;;;5031484;28;20078;-67
2022/11/20 03:37:26;;;;;;;57.00;13.02;;;;;;;;;;5106119;27;20434;-64
2022/11/20 03:39:53;;;;;;;47.90;14.75;;;;;;;;;;5106716;28;20128;-63
2022/11/20 03:45:05;;;;;;;44.97;12.35;;;15.00;42.80;;;;;;5105176;28;20591;-65
2022/11/20 03:47:31;;;;;;;39.28;12.82;;;15.00;44.40;;;;;;5105927;28;20386;-66
2022/11/20 03:49:57;;;;;;;;;;;14.90;58.00;;;;;;5106427;28;20482;-66
2022/11/20 03:52:24;;;;;;;41.13;12.88;;;14.70;52.70;;;;;;5103831;28;20017;-64
2022/11/20 03:54:50;;;;;;;;;;;;;;;;;;5104938;28;20557;-65
2022/11/20 03:57:16;;;;;;;35.33;11.93;;;;;;;;;;5104288;28;20273;-63
2022/11/20 03:59:43;;;;;;;31.90;11.40;;;14.90;58.90;;;;;;5104391;28;20062;-62
2022/11/20 04:02:09;;;;;;;;;;;14.80;54.20;;;;;;5104643;28;20081;-64
2022/11/20 04:04:35;;;;;;;59.63;13.98;;;14.60;41.60;;;;;;5104499;28;20372;-63
2022/11/20 04:08:16;;;;;;;119.50;18.17;;;15.40;56.00;;;;;;5090075;27;20442;-64
2022/11/20 04:10:42;;;;;;;;;;;14.50;44.00;;;;;;5096854;28;20168;-63
2022/11/20 04:13:08;;;;;;;42.78;11.65;;;14.40;45.40;;;;;;5091637;28;20060;-65
2022/11/20 04:15:35;;;;;;;;;;;14.30;42.40;;;;;;5050641;28;20146;-63
2022/11/20 04:18:01;;;;;;;30.92;10.30;;;14.20;75.10;;;;;;5078429;28;19964;-63
2022/11/20 04:20:27;;;;;;;;;;;14.20;42.20;;;;;;5078907;28;20169;-62
2022/11/20 04:22:54;;;;;;;67.50;18.73;;;14.00;41.70;;;;;;5074275;28;20387;-65
2022/11/20 04:25:21;;;;;;;40.08;9.63;;;;;;;;;;5079136;28;20040;-66
2022/11/20 04:27:47;;;;;;;40.83;11.93;;;14.20;54.60;;;;;;5072006;28;20090;-62
2022/11/20 04:30:13;;;;;;;;;;;14.20;60.90;;;;;;5079332;28;20115;-65
2022/11/20 04:32:39;;;;;;;57.97;17.60;;;14.10;54.30;;;;;;5078223;28;20324;-63
2022/11/20 04:35:06;;;;;;;;;;;14.20;40.50;;;;;;5077811;28;20073;-66
2022/11/20 04:37:32;;;;;;;41.65;14.35;;;14.50;47.90;;;;;;5072271;28;20320;-64
2022/11/20 04:39:58;;;;;;;;;;;14.20;39.60;;;;;;5074595;28;20071;-66
2022/11/20 04:42:30;;;;;;;37.05;12.00;;;14.40;46.30;;;;;;5072251;28;19930;-66
2022/11/20 04:44:57;;;;;;;27.50;11.15;;;14.30;71.00;;;;;;5076094;28;20029;-64
2022/11/20 04:47:24;;;;;;;32.65;10.60;;;;;;;;;;5075204;28;20083;-65
2022/11/20 04:49:50;;;;;;;36.10;11.02;;;14.70;54.80;;;;;;5055735;28;20068;-66
2022/11/20 04:52:17;;;;;;;35.75;8.85;;;17.40;43.60;;;;;;5072901;28;20585;-63
2022/11/20 04:54:43;;;;;;;;;;;;;;;;;;5066680;28;20536;-63
2022/11/20 07:54:41;;;;;;;16.60;5.80;;;12.90;50.50;;;;;;5116373;27;20873;-67
2022/11/20 07:57:07;;;;;;;;;;;12.90;45.20;;;;;;5118361;28;20175;-71
2022/11/20 07:59:34;;;;;;;17.25;4.28;;;12.40;54.80;;;;;;5119214;28;20058;-71
2022/11/20 08:02:00;;;;;;;;;;;12.80;44.20;;;;;;5111517;27;20089;-71
2022/11/20 08:04:26;;;;;;;16.85;3.28;;;;;;;;;;5116201;28;20492;-70
2022/11/20 08:06:53;;;;;;;13.75;3.50;;;13.50;59.90;;;;;;5114755;28;20083;-71
2022/11/20 08:09:19;;;;;;;21.15;4.03;;;13.00;42.00;;;;;;5114771;27;20068;-69
2022/11/20 08:14:30;;;;;;;23.77;9.25;;;12.90;39.90;;;;;;5114206;28;20033;-68
2022/11/20 08:16:56;;;;;;;;;;;12.90;39.50;;;;;;5115826;27;20064;-69
2022/11/20 08:19:22;;;;;;;41.30;21.67;;;12.80;65.40;;;;;;5118034;28;20059;-68
2022/11/20 08:21:49;;;;;;;;;;;12.80;38.50;;;;;;5118456;27;20096;-69
2022/11/20 08:24:15;;;;;;;20.07;5.23;;;13.00;75.70;;;;;;5116278;28;20059;-69
2022/11/20 08:26:41;;;;;;;;;;;12.90;72.40;;;;;;5111028;28;20085;-67
2022/11/20 08:29:08;;;;;;;35.92;15.82;;;12.90;61.80;;;;;;5116261;28;20006;-69
2022/11/20 08:31:35;;;;;;;16.80;4.47;;;13.10;67.00;;;;;;5118926;27;20019;-69
2022/11/20 08:34:01;;;;;;;11.68;4.82;;;12.80;63.50;;;;;;5114319;28;20548;-68
2022/11/20 08:36:28;;;;;;;;;;;13.00;49.40;;;;;;5118698;27;20099;-69
2022/11/20 08:38:58;;;;;;;16.63;4.50;;;12.90;35.70;;;;;;5114154;28;19963;-69
2022/11/20 08:41:28;;;;;;;13.63;4.90;;;12.90;40.80;;;;;;5114763;28;20046;-69
2022/11/20 08:44:00;;;;;;;21.17;4.82;;;13.00;43.20;;;;;;5111561;28;20530;-69
2022/11/20 08:46:33;;;;;;;13.63;4.13;;;13.00;60.30;;;;;;5115103;27;20032;-70
2022/11/20 08:49:00;;;;;;;8.02;3.40;;;13.00;34.70;;;;;;5117692;28;20129;-68
2022/11/20 08:51:26;;;;;;;9.90;2.92;;;13.10;38.20;;;;;;5116814;28;20116;-68
2022/11/20 08:54:01;;;;;;;18.85;3.28;;;13.20;34.80;;;;;;5120214;28;20108;-70
2022/11/20 08:56:31;;;;;;;17.20;2.40;;;13.50;39.30;;;;;;5112656;28;20420;-68
2022/11/20 08:59:04;;;;;;;12.80;2.22;;;13.20;35.90;;;;;;5112993;28;20115;-70
2022/11/20 09:01:30;;;;;;;10.82;2.90;;;13.20;35.50;;;;;;5112802;28;20503;-68
2022/11/20 09:03:57;;;;;;;;;;;13.20;35.30;;;;;;5111104;28;20464;-69
2022/11/20 09:06:23;;;;;;;10.82;3.38;;;13.20;37.00;;;;;;5104673;28;19936;-68
2022/11/20 09:08:53;;;;;;;;;;;13.30;35.50;;;;;;5101059;28;20089;-69
2022/11/20 09:11:19;;;;;;;12.48;2.60;;;13.40;38.80;;;;;;5102236;28;20048;-70
2022/11/20 09:13:45;;;;;;;;;;;13.40;35.90;;;;;;5101938;28;20111;-69
2022/11/20 09:16:11;;;;;;;8.90;2.13;;;13.40;36.10;;;;;;5101331;28;19964;-70
2022/11/20 09:18:38;;;;;;;12.43;2.35;;;13.40;36.20;;;;;;5098956;28;20049;-67
2022/11/20 09:21:13;;;;;;;8.80;2.33;;;13.30;36.10;;;;;;5100098;28;20112;-69
2022/11/20 09:23:40;;;;;;;9.35;2.42;;;13.30;36.40;;;;;;5099834;28;20491;-68
2022/11/20 09:26:07;;;;;;;;;;;13.30;37.30;;;;;;5098505;28;20049;-70
2022/11/20 09:28:33;;;;;;;15.57;1.92;;;13.30;40.70;;;;;;5104439;28;19939;-70
2022/11/20 09:31:00;;;;;;;11.02;2.10;;;13.30;36.40;;;;;;5102043;28;20073;-71
2022/11/20 09:33:27;;;;;;;7.35;1.80;;;13.40;36.10;;;;;;5100446;28;20115;-68
2022/11/20 09:35:53;;;;;;;6.97;1.75;;;13.30;35.80;;;;;;5102641;28;20052;-69
2022/11/20 09:38:19;;;;;;;;;;;13.40;35.70;;;;;;5100451;28;20103;-69
2022/11/20 09:41:02;;;;;;;7.45;1.42;;;13.40;36.50;;;;;;5102337;28;19949;-69
2022/11/20 09:43:47;;;;;;;12.25;1.80;;;13.50;34.70;;;;;;5099806;28;20074;-68
2022/11/20 09:46:47;;;;;;;4.53;1.52;;;13.50;34.60;;;;;;5100342;28;20083;-69
2022/11/20 09:49:25;;;;;;;15.80;1.85;;;13.50;34.90;;;;;;5099248;28;20071;-70
2022/11/20 09:52:08;;;;;;;5.47;1.33;;;13.50;35.10;;;;;;5104944;28;20083;-69
2022/11/20 09:54:40;;;;;;;8.55;1.73;;;13.50;36.00;;;;;;5097255;28;20111;-69
2022/11/20 09:57:13;;;;;;;9.48;1.60;;;13.60;35.60;;;;;;5102078;28;20426;-69
2022/11/20 09:59:43;;;;;;;5.22;1.50;;;13.60;35.10;;;;;;5097262;28;20152;-69
2022/11/20 10:02:29;;;;;;;7.80;1.65;;;13.50;35.20;;;;;;5095682;28;20084;-68
2022/11/20 10:05:29;;;;;;;6.53;1.38;;;12.90;36.10;;;;;;5101178;28;20088;-69
2022/11/20 10:08:02;;;;;;;4.65;1.50;;;13.60;35.20;;;;;;5100160;28;20141;-68
2022/11/20 10:10:35;;;;;;;4.82;1.73;;;13.50;35.60;;;;;;5102051;28;20530;-68
2022/11/20 10:13:01;;;;;;;7.70;2.33;;;13.50;35.40;;;;;;5101658;27;20556;-70
2022/11/20 10:15:38;;;;;;;;;;;13.50;36.10;;;;;;5104066;28;20080;-67
2022/11/20 10:18:11;;;;;;;6.38;2.00;;;13.40;35.60;;;;;;5097226;28;19953;-68
2022/11/20 10:21:04;;;;;;;9.90;2.40;;;13.30;35.20;;;;;;5096672;28;20071;-70
2022/11/20 10:23:49;;;;;;;8.90;2.88;;;13.40;35.20;;;;;;5098273;28;20064;-69
2022/11/20 10:26:46;;;;;;;6.13;2.53;;;13.30;35.10;;;;;;5098643;28;20068;-66
2022/11/20 10:29:47;;;;;;;6.80;2.80;;;13.30;35.10;;;;;;5100866;28;20466;-69
2022/11/20 10:32:25;;;;;;;5.95;2.75;;;13.40;35.60;;;;;;5037172;28;20086;-68
2022/11/20 10:34:54;;;;;;;11.63;2.80;;;13.40;36.10;;;;;;5040131;28;20110;-67
2022/11/20 10:37:27;;;;;;;11.65;2.47;;;13.40;35.10;;;;;;5035959;28;20183;-69
2022/11/20 10:40:14;;;;;;;14.73;2.40;;;13.30;34.90;;;;;;5031813;28;20087;-68
2022/11/20 10:42:47;;;;;;;8.13;2.05;;;13.30;34.70;;;;;;5025554;28;20111;-68
2022/11/20 10:45:49;;;;;;;5.05;1.83;;;13.30;34.60;;;;;;5039319;28;20488;-69
2022/11/20 10:48:20;;;;;;;6.07;2.03;;;13.30;34.30;;;;;;5040233;28;20214;-69
2022/11/20 10:51:05;;;;;;;6.47;2.17;;;13.30;34.00;;;;;;5034858;28;20096;-70
2022/11/20 10:54:08;;;;;;;11.95;1.85;;;13.30;34.00;;;;;;5039110;28;20133;-69
2022/11/20 10:56:39;;;;;;;9.70;1.70;;;12.90;33.40;;;;;;5034871;28;20077;-68
2022/11/20 10:59:30;;;;;;;5.55;1.90;;;13.20;33.30;;;;;;5022705;28;20088;-69
2022/11/20 11:01:56;;;;;;;6.40;1.95;;;13.30;33.20;;;;;;5039171;28;20104;-66
2022/11/20 11:04:37;;;;;;;6.32;1.63;;;13.30;33.10;;;;;;5036942;28;20103;-67
2022/11/20 11:07:14;;;;;;;4.80;1.25;;;13.20;33.50;;;;;;5052906;28;20083;-67
2022/11/20 11:09:46;;;;;;;7.65;1.60;;;13.20;33.30;;;;;;5101032;28;20087;-69
2022/11/20 11:12:13;;;;;;;7.97;1.83;;;13.20;33.40;;;;;;5100544;28;20152;-69
2022/11/20 11:14:44;;;;;;;5.30;1.23;;;13.20;33.70;;;;;;5105306;28;20572;-66
2022/11/20 11:17:27;;;;;;;8.18;1.55;;;13.20;34.10;;;;;;5094247;28;20084;-66
2022/11/20 11:20:11;;;;;;;6.72;1.83;;;13.20;34.20;;;;;;5103074;28;20176;-68
2022/11/20 11:22:48;;;;;;;8.77;1.25;;;13.20;34.60;;;;;;5100069;28;20408;-66
2022/11/20 11:25:33;;;;;;;;;;;13.20;34.90;;;;;;5097874;28;20544;-65
2022/11/20 11:28:04;;;;;;;2.42;1.20;;;13.10;35.10;;;;;;5096841;28;19984;-66
2022/11/20 11:30:41;;;;;;;9.43;1.50;;;13.10;35.20;;;;;;5099701;28;20094;-66
2022/11/20 11:33:11;;;;;;;4.32;1.30;;;13.10;35.20;;;;;;5102050;28;20563;-66
2022/11/20 11:35:47;;;;;;;4.82;1.63;;;13.10;35.20;;;;;;5101307;28;20076;-68
2022/11/20 11:38:42;;;;;;;5.90;1.88;;;13.10;35.40;;;;;;5099758;28;20572;-66
2022/11/20 11:41:23;;;;;;;3.03;1.27;;;13.20;35.10;;;;;;5101123;28;20108;-68
2022/11/20 11:47:00;;;;;;;7.97;1.50;;;13.10;35.70;;;;;;5095117;28;20578;-69
2022/11/20 11:49:27;;;;;;;4.63;1.40;;;13.10;36.40;;;;;;5096832;28;20141;-68
2022/11/20 11:52:02;;;;;;;;;;;13.10;36.80;;;;;;5103841;28;20465;-70
2022/11/20 11:54:38;;;;;;;3.40;1.17;;;13.00;37.10;;;;;;5093740;28;19990;-68
2022/11/20 11:57:41;;;;;;;6.45;1.50;;;13.00;37.60;;;;;;5103891;28;20084;-69
2022/11/20 12:00:15;;;;;;;7.95;1.45;;;12.90;37.80;;;;;;5093803;28;20076;-67
2022/11/20 12:02:44;;;;;;;5.13;1.50;;;12.90;37.90;;;;;;5098364;28;20110;-69
2022/11/20 12:05:45;;;;;;;6.82;1.27;;;12.90;38.40;;;;;;5097666;28;20099;-68
2022/11/20 12:08:52;;;;;;;7.75;1.50;;;12.90;38.50;;;;;;5046164;28;20086;-69
2022/11/20 12:11:55;;;;;;;4.10;1.20;;;12.80;38.90;;;;;;5047292;28;20088;-70
2022/11/20 12:14:43;;;;;;;3.78;1.35;;;12.70;38.50;;;;;;5045319;28;20104;-69
2022/11/20 12:17:12;;;;;;;8.10;1.77;;;12.70;38.90;;;;;;5046717;28;20139;-69
2022/11/20 12:19:39;;;;;;;3.58;1.45;;;12.60;40.00;;;;;;5046083;28;20531;-68
2022/11/20 12:22:29;;;;;;;5.88;1.45;;;12.50;39.60;;;;;;5047104;28;20171;-69
2022/11/20 12:25:14;;;;;;;4.95;1.55;;;12.50;39.90;;;;;;5044934;28;20101;-68
2022/11/20 12:28:01;;;;;;;3.92;1.52;;;12.50;39.30;;;;;;5046731;28;20069;-69
2022/11/20 12:30:28;;;;;;;4.90;1.40;;;12.50;39.00;;;;;;5045406;28;20081;-68
2022/11/20 12:33:00;;;;;;;3.92;1.38;;;12.50;39.20;;;;;;5047243;28;20431;-67
2022/11/20 12:35:51;;;;;;;5.03;1.55;;;12.40;39.40;;;;;;5045935;28;20135;-69
2022/11/20 12:38:23;;;;;;;4.88;1.42;;;12.40;39.70;;;;;;5046143;28;20165;-69
2022/11/20 12:41:05;;;;;;;7.20;1.63;;;12.30;39.70;;;;;;5049141;28;20074;-69
2022/11/20 12:47:10;;;;;;;5.45;1.70;;;12.20;40.40;;;;;;5079970;28;20414;-69
2022/11/20 12:50:08;;;;;;;10.88;1.65;;;12.10;40.60;;;;;;5106776;28;20169;-69
2022/11/20 12:52:58;;;;;;;4.93;1.50;;;12.00;40.40;;;;;;5019251;28;20106;-68
2022/11/20 12:55:31;;;;;;;5.68;1.50;;;12.00;65.70;;;;;;5021804;28;20311;-69
2022/11/20 12:58:29;;;;;;;7.50;1.73;;;11.90;39.70;;;;;;5020446;28;20096;-68
2022/11/20 13:03:57;;;;;;;6.53;1.50;;;11.90;63.50;;;;;;5031454;28;20131;-69
2022/11/20 13:06:25;;;;;;;5.65;1.70;;;11.80;63.10;;;;;;5031552;28;20083;-68
2022/11/20 13:08:57;;;;;;;5.32;1.85;;;12.10;64.60;;;;;;5029826;28;20136;-69
2022/11/20 13:11:43;;;;;;;3.75;1.80;;;11.90;65.70;;;;;;5032006;28;20078;-68
2022/11/20 13:14:23;;;;;;;5.38;1.83;;;12.00;66.20;;;;;;5033106;28;20096;-69
2022/11/20 13:17:17;;;;;;;6.25;1.60;;;12.10;64.80;;;;;;5042398;28;20088;-69
2022/11/20 13:19:52;;;;;;;4.82;1.20;;;11.90;66.50;;;;;;5046064;28;20085;-69
2022/11/20 13:22:42;;;;;;;5.25;1.55;;;11.60;40.00;;;;;;5039990;28;20530;-68
2022/11/20 13:25:33;;;;;;;4.75;1.55;;;11.60;40.20;;;;;;5043147;28;20093;-69
2022/11/20 13:28:24;;;;;;;5.05;1.52;;;11.60;63.40;;;;;;5045321;28;20160;-69
2022/11/20 13:30:53;;;;;;;5.80;1.65;;;11.60;41.50;;;;;;5041508;28;20435;-68
2022/11/20 13:33:33;;;;;;;7.22;1.80;;;11.60;41.10;;;;;;5044410;28;20093;-70
2022/11/20 13:36:05;;;;;;;2.22;1.27;;;11.60;41.80;;;;;;5045511;28;20126;-70
2022/11/20 13:38:55;;;;;;;8.35;1.90;;;11.50;41.60;;;;;;5040962;28;20082;-69
2022/11/20 13:41:31;;;;;;;3.38;1.40;;;11.50;42.30;;;;;;5046543;28;20081;-68
2022/11/20 13:44:08;;;;;;;3.80;1.47;;;11.60;42.60;;;;;;5041931;28;20076;-69
2022/11/20 13:46:46;;;;;;;9.85;1.75;;;11.40;42.20;;;;;;5041559;28;20116;-69
2022/11/20 13:49:30;;;;;;;8.60;2.00;;;11.40;42.70;;;;;;5041380;28;20081;-68
2022/11/20 13:52:36;;;;;;;10.70;2.15;;;11.50;43.40;;;;;;5038512;28;20449;-67
2022/11/20 13:55:14;;;;;;;11.90;1.90;;;11.50;43.60;;;;;;5032081;28;20102;-69
2022/11/20 13:57:50;;;;;;;10.82;2.30;;;11.30;44.50;;;;;;5042772;28;20073;-70
2022/11/20 14:00:22;;;;;;;4.45;2.13;;;11.20;44.70;;;;;;5040682;28;20065;-69
2022/11/20 14:03:12;;;;;;;6.70;1.95;;;11.30;45.00;;;;;;5042205;28;20113;-69
2022/11/20 14:05:48;;;;;;;9.60;2.25;;;11.30;44.70;;;;;;5046129;28;20216;-67
2022/11/20 14:08:33;;;;;;;15.13;2.38;;;11.20;45.10;;;;;;5036061;28;20127;-67
2022/11/20 14:11:24;;;;;;;13.27;2.70;;;11.10;44.80;;;;;;5035267;28;20516;-68
2022/11/20 14:13:56;;;;;;;9.90;2.63;;;11.00;45.30;;;;;;5041890;28;20112;-69
2022/11/20 14:16:24;;;;;;;8.00;2.42;;;10.90;46.90;;;;;;5031174;28;20574;-70
2022/11/20 14:18:51;;;;;;;10.95;3.55;;;10.90;46.70;;;;;;5040655;28;20074;-70
2022/11/20 14:21:29;;;;;;;17.42;3.53;;;10.80;46.80;;;;;;5043530;28;20422;-69
2022/11/20 14:24:12;;;;;;;13.98;3.17;;;10.80;46.80;;;;;;5044344;28;20147;-69
2022/11/20 14:26:43;;;;;;;23.08;3.42;;;10.70;47.00;;;;;;5048686;28;20187;-69
2022/11/20 14:29:29;;;;;;;21.40;3.28;;;10.70;46.70;;;;;;5042692;28;20082;-70
2022/11/20 14:31:57;;;;;;;14.40;3.20;;;10.70;46.80;;;;;;5039253;28;20093;-69
2022/11/20 14:34:32;;;;;;;14.45;3.95;;;10.60;46.80;;;;;;5036895;28;20086;-68
2022/11/20 14:37:01;;;;;;;24.42;4.40;;;10.70;47.10;;;;;;5047018;28;20069;-68
2022/11/20 14:39:47;;;;;;;14.40;3.90;;;10.80;47.20;;;;;;5040158;28;20094;-70
2022/11/20 14:42:23;;;;;;;10.75;3.78;;;10.80;47.50;;;;;;5040840;28;20454;-69
2022/11/20 14:44:52;;;;;;;17.30;4.32;;;10.80;47.40;;;;;;5040910;28;20527;-69
2022/11/20 14:47:30;;;;;;;10.48;3.53;;;10.80;48.10;;;;;;5038928;28;20073;-67
2022/11/20 14:49:58;;;;;;;14.77;3.58;;;10.80;48.70;;;;;;5039389;28;20093;-69
2022/11/20 14:52:27;;;;;;;17.70;3.88;;;10.70;49.20;;;;;;5043690;28;20074;-69
2022/11/20 14:55:01;;;;;;;20.38;4.43;;;10.70;49.00;;;;;;5035166;28;20101;-69
2022/11/20 14:57:30;;;;;;;21.35;4.85;;;10.80;49.40;;;;;;5038105;28;20085;-68
2022/11/20 15:00:15;;;;;;;16.38;4.13;;;10.90;49.30;;;;;;5040512;28;20092;-68
2022/11/20 15:02:43;;;;;;;20.25;4.50;;;11.00;48.50;;;;;;5037800;28;20196;-69
2022/11/20 15:05:10;;;;;;;19.20;5.05;;;11.00;49.30;;;;;;5039329;28;20074;-66
2022/11/20 15:07:45;;;;;;;28.10;6.03;;;11.00;49.10;;;;;;5039673;28;20387;-70
2022/11/20 15:10:30;;;;;;;25.70;6.18;;;11.10;49.60;;;;;;5038815;28;20578;-69
2022/11/20 15:13:12;;;;;;;18.00;5.38;;;11.30;48.20;;;;;;5035744;28;20966;-69
2022/11/20 15:15:48;;;;;;;19.30;5.90;;;11.40;47.70;;;;;;5035865;28;20098;-69
2022/11/20 15:18:17;;;;;;;27.35;6.30;;;11.50;46.30;;;;;;5041193;28;20066;-68
2022/11/20 15:20:44;;;;;;;20.15;5.57;;;11.70;47.00;;;;;;5041119;28;20083;-69
2022/11/20 15:23:17;;;;;;;26.80;7.05;;;11.80;47.70;;;;;;5039994;28;20124;-68
2022/11/20 15:25:44;;;;;;;33.47;8.07;;;12.00;44.30;;;;;;5041800;28;20073;-69
2022/11/20 15:28:33;;;;;;;;;;;12.10;44.80;;;;;;5048636;28;20071;-68
2022/11/20 15:30:59;;;;;;;33.83;8.75;;;12.20;42.40;;;;;;5025159;28;19957;-69
2022/11/20 15:33:26;;;;;;;14.73;6.25;;;12.40;39.90;;;;;;5040140;28;20135;-69
2022/11/20 15:35:52;;;;;;;;;;;12.60;38.20;;;;;;5042365;28;20149;-67
2022/11/20 15:38:18;;;;;;;20.05;7.20;;;12.70;37.20;;;;;;5040913;28;19993;-68
2022/11/20 15:40:45;;;;;;;21.90;7.80;;;12.90;36.60;;;;;;5039013;28;20152;-69
2022/11/20 15:43:11;;;;;;;;;;;13.10;36.70;;;;;;5039080;28;20066;-67
2022/11/20 15:45:59;;;;;;;34.10;8.73;;;13.20;36.60;;;;;;5043816;28;20008;-70
2022/11/20 15:48:29;;;;;;;21.88;8.27;;;13.40;36.10;;;;;;5033784;28;20089;-69
2022/11/20 15:51:11;;;;;;;27.00;8.80;;;13.60;35.90;;;;;;5041024;28;20082;-69
2022/11/20 15:53:38;;;;;;;22.20;8.07;;;13.80;36.00;;;;;;5039380;28;20093;-70
2022/11/20 15:56:05;;;;;;;17.77;6.47;;;13.90;36.20;;;;;;5040882;28;20072;-68
2022/11/20 15:58:31;;;;;;;17.20;5.10;;;14.10;35.90;;;;;;5037562;28;20108;-69
2022/11/20 16:00:57;;;;;;;;;;;14.30;35.00;;;;;;5040417;28;20074;-68
2022/11/20 16:03:24;;;;;;;11.15;3.63;;;14.50;34.80;;;;;;5036633;28;19988;-69
2022/11/20 16:05:50;;;;;;;6.45;3.15;;;14.60;35.20;;;;;;5042483;28;20073;-68
2022/11/20 16:08:16;;;;;;;;;;;14.80;34.80;;;;;;5039381;28;20118;-69
2022/11/20 16:10:42;;;;;;;14.70;2.60;;;14.90;34.30;;;;;;5037223;28;19956;-68
2022/11/20 16:16:04;;;;;;;10.82;2.72;;;15.20;33.20;;;;;;5042697;28;20116;-68
2022/11/20 16:18:31;;;;;;;9.02;2.83;;;15.40;33.30;;;;;;5044024;28;20111;-65
2022/11/20 16:20:58;;;;;;;12.38;2.83;;;15.60;33.60;;;;;;5038212;28;20067;-67
2022/11/20 16:23:24;;;;;;;;;;;15.80;33.60;;;;;;5025014;28;20056;-69
2022/11/20 16:25:51;;;;;;;13.85;2.60;;;16.10;33.40;;;;;;5045232;28;19944;-67
2022/11/20 16:28:18;;;;;;;8.38;2.25;;;16.20;33.60;;;;;;5042929;28;20059;-67
2022/11/20 16:30:44;;;;;;;11.60;2.42;;;16.50;32.60;;;;;;5047640;28;20106;-69
2022/11/20 16:33:13;;;;;;;9.75;2.30;;;16.70;33.40;;;;;;5048402;28;20073;-70
2022/11/20 16:35:40;;;;;;;7.03;2.13;;;16.90;33.20;;;;;;5040886;28;20039;-69
2022/11/20 16:38:06;;;;;;;6.57;2.00;;;17.30;31.90;;;;;;5044139;28;20543;-70
2022/11/20 16:40:33;;;;;;;5.47;1.73;;;17.70;33.70;;;;;;5047120;28;21705;-67
2022/11/20 16:43:11;;;;;;;5.65;1.40;;;17.90;32.40;;;;;;5042898;28;20073;-70